createdAt,value
2017-10-20T00:00:36.438Z,99.99
2017-10-20T00:01:16.976Z,99.99
2017-10-20T00:01:57.513Z,99.99
2017-10-20T00:02:38.055Z,99.99
2017-10-20T00:03:18.582Z,99.99
2017-10-20T00:03:59.122Z,99.99
2017-10-20T00:04:39.660Z,99.99
2017-10-20T00:05:20.200Z,99.99
2017-10-20T00:06:00.742Z,99.99
2017-10-20T00:06:41.282Z,99.99
2017-10-20T00:07:21.818Z,99.99
2017-10-20T00:08:02.359Z,99.99
2017-10-20T00:08:42.900Z,99.99
2017-10-20T00:09:23.442Z,99.99
2017-10-20T00:10:03.981Z,99.99
2017-10-20T00:10:44.515Z,99.99
2017-10-20T00:11:25.046Z,99.99
2017-10-20T00:12:05.593Z,99.99
2017-10-20T00:12:46.129Z,99.99
2017-10-20T00:13:26.673Z,99.99
2017-10-20T00:14:07.213Z,99.99
2017-10-20T00:14:47.745Z,99.99
2017-10-20T00:15:28.328Z,99.99
2017-10-20T00:16:08.878Z,99.99
2017-10-20T00:16:49.438Z,99.99
2017-10-20T00:17:29.980Z,99.99
2017-10-20T00:18:10.520Z,99.99
2017-10-20T00:18:51.056Z,99.99
2017-10-20T00:19:31.596Z,99.99
2017-10-20T00:20:12.135Z,99.99
2017-10-20T00:20:52.668Z,99.99
2017-10-20T00:21:33.211Z,99.99
2017-10-20T00:22:13.750Z,99.99
2017-10-20T00:22:54.297Z,99.99
2017-10-20T00:23:34.835Z,99.99
2017-10-20T00:24:15.378Z,99.99
2017-10-20T00:24:55.921Z,99.99
2017-10-20T00:25:36.464Z,99.99
2017-10-20T00:26:16.996Z,99.99
2017-10-20T00:26:57.542Z,99.99
2017-10-20T00:27:38.068Z,99.99
2017-10-20T00:28:18.609Z,99.99
2017-10-20T00:28:59.154Z,99.99
2017-10-20T00:29:39.706Z,99.99
2017-10-20T00:30:20.244Z,99.99
2017-10-20T00:31:00.778Z,99.99
2017-10-20T00:31:41.308Z,99.99
2017-10-20T00:32:21.843Z,99.99
2017-10-20T00:33:02.404Z,99.99
2017-10-20T00:33:42.949Z,99.99
2017-10-20T00:34:23.491Z,99.99
2017-10-20T00:35:04.020Z,99.99
2017-10-20T00:35:44.559Z,99.99
2017-10-20T00:36:25.091Z,99.99
2017-10-20T00:37:05.627Z,99.99
2017-10-20T00:37:46.163Z,99.99
2017-10-20T00:38:26.699Z,99.99
2017-10-20T00:39:07.247Z,99.99
2017-10-20T00:39:47.787Z,99.99
2017-10-20T00:40:28.324Z,99.99
2017-10-20T00:41:08.863Z,99.99
2017-10-20T00:41:49.405Z,99.99
2017-10-20T00:42:29.945Z,99.99
2017-10-20T00:43:10.497Z,99.99
2017-10-20T00:43:51.033Z,99.99
2017-10-20T00:44:31.579Z,99.99
2017-10-20T00:45:12.113Z,99.99
2017-10-20T00:45:52.651Z,99.99
2017-10-20T00:46:33.250Z,99.99
2017-10-20T00:47:13.788Z,99.99
2017-10-20T00:47:54.319Z,99.99
2017-10-20T00:48:34.854Z,99.99
2017-10-20T00:49:15.391Z,99.99
2017-10-20T00:49:55.932Z,99.99
2017-10-20T00:50:36.470Z,99.99
2017-10-20T00:51:17.060Z,99.99
2017-10-20T00:51:57.593Z,99.99
2017-10-20T00:52:38.137Z,99.99
2017-10-20T00:53:18.675Z,99.99
2017-10-20T00:53:59.218Z,99.99
2017-10-20T00:54:39.759Z,99.99
2017-10-20T00:55:20.296Z,99.99
2017-10-20T00:56:00.832Z,99.99
2017-10-20T00:56:41.362Z,99.99
2017-10-20T00:57:21.900Z,99.99
2017-10-20T00:58:02.460Z,99.99
2017-10-20T00:58:43.005Z,99.99
2017-10-20T00:59:23.520Z,99.99
2017-10-20T01:00:04.061Z,99.99
2017-10-20T01:00:44.599Z,99.99
2017-10-20T01:01:25.138Z,99.99
2017-10-20T01:02:05.679Z,99.99
2017-10-20T01:02:46.221Z,99.99
2017-10-20T01:03:26.757Z,99.99
2017-10-20T01:04:07.298Z,99.99
2017-10-20T01:04:47.842Z,99.99
2017-10-20T01:05:28.376Z,99.99
2017-10-20T01:06:08.913Z,99.99
2017-10-20T01:06:52.390Z,99.99
2017-10-20T01:07:32.931Z,99.99
2017-10-20T01:08:13.491Z,99.99
2017-10-20T01:08:54.029Z,99.99
2017-10-20T01:09:34.569Z,99.99
2017-10-20T01:10:15.117Z,99.99
2017-10-20T01:10:55.649Z,99.99
2017-10-20T01:11:36.189Z,99.99
2017-10-20T01:12:16.733Z,99.99
2017-10-20T01:12:57.265Z,99.99
2017-10-20T01:13:37.798Z,99.99
2017-10-20T01:14:18.338Z,99.99
2017-10-20T01:14:58.882Z,99.99
2017-10-20T01:15:39.415Z,99.99
2017-10-20T01:16:19.955Z,99.99
2017-10-20T01:17:01.373Z,99.99
2017-10-20T01:18:17.590Z,99.99
2017-10-20T01:18:58.126Z,99.99
2017-10-20T01:19:38.670Z,99.99
2017-10-20T01:20:19.208Z,99.99
2017-10-20T01:20:59.743Z,99.99
2017-10-20T01:21:40.280Z,99.99
2017-10-20T01:22:20.816Z,99.99
2017-10-20T01:23:01.353Z,99.99
2017-10-20T01:23:41.889Z,99.99
2017-10-20T01:24:22.429Z,99.99
2017-10-20T01:25:02.974Z,99.99
2017-10-20T01:25:43.503Z,99.99
2017-10-20T01:26:24.043Z,99.99
2017-10-20T01:27:04.581Z,99.99
2017-10-20T01:27:45.123Z,99.99
2017-10-20T01:28:25.661Z,99.99
2017-10-20T01:29:06.199Z,99.99
2017-10-20T01:29:46.735Z,99.99
2017-10-20T01:30:27.269Z,99.99
2017-10-20T01:31:07.820Z,99.99
2017-10-20T01:31:48.349Z,99.99
2017-10-20T01:32:28.888Z,99.99
2017-10-20T01:33:09.422Z,99.99
2017-10-20T01:33:49.971Z,99.99
2017-10-20T01:34:30.512Z,99.99
2017-10-20T01:35:11.045Z,99.99
2017-10-20T01:35:51.578Z,99.99
2017-10-20T01:36:32.127Z,99.99
2017-10-20T01:37:12.663Z,99.99
2017-10-20T01:37:53.205Z,99.99
2017-10-20T01:38:33.740Z,99.99
2017-10-20T01:39:14.283Z,99.99
2017-10-20T01:39:54.834Z,99.99
2017-10-20T01:40:35.406Z,99.99
2017-10-20T01:41:15.915Z,99.99
2017-10-20T01:41:56.448Z,99.99
2017-10-20T01:42:36.984Z,99.99
2017-10-20T01:43:17.518Z,99.99
2017-10-20T01:43:58.061Z,99.99
2017-10-20T01:44:38.599Z,99.99
2017-10-20T01:45:19.134Z,99.99
2017-10-20T01:45:59.674Z,99.99
2017-10-20T01:46:40.215Z,99.99
2017-10-20T01:47:20.754Z,99.99
2017-10-20T01:48:01.309Z,99.99
2017-10-20T01:48:41.858Z,99.99
2017-10-20T01:49:22.364Z,99.99
2017-10-20T01:50:02.903Z,99.99
2017-10-20T01:50:43.439Z,99.99
2017-10-20T01:51:23.967Z,99.99
2017-10-20T01:52:04.522Z,99.99
2017-10-20T01:52:45.059Z,99.99
2017-10-20T01:53:25.591Z,99.99
2017-10-20T01:54:06.128Z,99.99
2017-10-20T01:54:46.665Z,99.99
2017-10-20T01:55:27.206Z,99.99
2017-10-20T01:56:07.749Z,99.99
2017-10-20T01:56:48.286Z,99.99
2017-10-20T01:57:28.821Z,99.99
2017-10-20T01:58:09.364Z,99.99
2017-10-20T01:58:49.899Z,99.99
2017-10-20T01:59:30.435Z,99.99
2017-10-20T02:00:10.976Z,99.99
2017-10-20T02:00:51.514Z,99.99
2017-10-20T02:01:32.055Z,99.99
2017-10-20T02:02:12.592Z,99.99
2017-10-20T02:02:53.130Z,99.99
2017-10-20T02:03:33.671Z,99.99
2017-10-20T02:04:14.213Z,99.99
2017-10-20T02:04:54.752Z,99.99
2017-10-20T02:05:35.282Z,99.99
2017-10-20T02:06:15.820Z,99.99
2017-10-20T02:06:56.361Z,99.99
2017-10-20T02:07:36.898Z,99.99
2017-10-20T02:08:17.434Z,99.99
2017-10-20T02:08:58.031Z,99.99
2017-10-20T02:09:38.574Z,99.99
2017-10-20T02:10:19.128Z,99.99
2017-10-20T02:10:59.668Z,99.99
2017-10-20T02:11:40.214Z,99.99
2017-10-20T02:12:20.757Z,99.99
2017-10-20T02:13:01.287Z,99.99
2017-10-20T02:13:41.817Z,99.99
2017-10-20T02:14:22.354Z,99.99
2017-10-20T02:15:02.890Z,99.99
2017-10-20T02:15:43.430Z,99.99
2017-10-20T02:16:23.969Z,99.99
2017-10-20T02:17:04.505Z,99.99
2017-10-20T02:17:45.049Z,99.99
2017-10-20T02:18:25.584Z,99.99
2017-10-20T02:19:06.117Z,99.99
2017-10-20T02:19:46.660Z,99.99
2017-10-20T02:20:27.199Z,99.99
2017-10-20T02:21:07.734Z,99.99
2017-10-20T02:21:48.274Z,99.99
2017-10-20T02:22:28.805Z,99.99
2017-10-20T02:23:09.342Z,99.99
2017-10-20T02:23:49.882Z,99.99
2017-10-20T02:24:30.421Z,99.99
2017-10-20T02:25:10.961Z,99.99
2017-10-20T02:25:51.512Z,99.99
2017-10-20T02:26:32.053Z,99.99
2017-10-20T02:27:12.590Z,99.99
2017-10-20T02:27:53.137Z,99.99
2017-10-20T02:28:33.676Z,99.99
2017-10-20T02:29:14.211Z,99.99
2017-10-20T02:29:54.747Z,99.99
2017-10-20T02:30:35.280Z,99.99
2017-10-20T02:31:15.828Z,99.99
2017-10-20T02:31:56.363Z,99.99
2017-10-20T02:32:36.911Z,99.99
2017-10-20T02:33:17.444Z,99.99
2017-10-20T02:33:57.986Z,99.99
2017-10-20T02:34:38.526Z,99.99
2017-10-20T02:35:19.055Z,99.99
2017-10-20T02:35:59.594Z,99.99
2017-10-20T02:36:40.132Z,99.99
2017-10-20T02:37:20.675Z,99.99
2017-10-20T02:38:01.218Z,99.99
2017-10-20T02:38:41.752Z,99.99
2017-10-20T02:39:22.301Z,99.99
2017-10-20T02:40:02.847Z,99.99
2017-10-20T02:40:43.379Z,99.99
2017-10-20T02:41:23.919Z,99.99
2017-10-20T02:42:04.458Z,99.99
2017-10-20T02:42:44.993Z,99.99
2017-10-20T02:43:25.599Z,99.99
2017-10-20T02:44:06.163Z,99.99
2017-10-20T02:44:46.672Z,99.99
2017-10-20T02:45:27.212Z,99.99
2017-10-20T02:46:07.742Z,99.99
2017-10-20T02:46:48.289Z,99.99
2017-10-20T02:47:28.815Z,99.99
2017-10-20T02:48:09.359Z,99.99
2017-10-20T02:48:49.900Z,99.99
2017-10-20T02:49:30.438Z,99.99
2017-10-20T02:50:10.978Z,99.99
2017-10-20T02:50:51.515Z,99.99
2017-10-20T02:51:32.048Z,99.99
2017-10-20T02:52:12.585Z,99.99
2017-10-20T02:52:53.129Z,99.99
2017-10-20T02:53:33.663Z,99.99
2017-10-20T02:54:14.206Z,99.99
2017-10-20T02:54:54.741Z,99.99
2017-10-20T02:55:35.273Z,99.99
2017-10-20T02:56:15.809Z,99.99
2017-10-20T02:56:56.351Z,99.99
2017-10-20T02:57:36.881Z,99.99
2017-10-20T02:58:17.421Z,99.99
2017-10-20T02:58:57.959Z,99.99
2017-10-20T02:59:38.495Z,99.99
2017-10-20T03:00:19.027Z,99.99
2017-10-20T03:00:59.568Z,99.99
2017-10-20T03:01:40.091Z,99.99
2017-10-20T03:02:20.627Z,99.99
2017-10-20T03:03:01.162Z,99.99
2017-10-20T03:03:41.680Z,99.99
2017-10-20T03:04:22.208Z,99.99
2017-10-20T03:05:02.746Z,99.99
2017-10-20T03:05:43.282Z,99.99
2017-10-20T03:06:23.826Z,99.99
2017-10-20T03:07:04.370Z,99.99
2017-10-20T03:07:44.968Z,99.99
2017-10-20T03:08:25.492Z,99.99
2017-10-20T03:09:06.028Z,99.99
2017-10-20T03:09:46.651Z,99.99
2017-10-20T03:10:27.165Z,99.99
2017-10-20T03:11:07.739Z,99.99
2017-10-20T03:11:48.274Z,99.29
2017-10-20T03:12:28.811Z,99.99
2017-10-20T03:13:09.351Z,99.99
2017-10-20T03:13:49.884Z,99.48
2017-10-20T03:14:30.417Z,99.48
2017-10-20T03:15:10.985Z,98.81
2017-10-20T03:15:51.520Z,98.62
2017-10-20T03:16:32.070Z,98.62
2017-10-20T03:17:12.598Z,99.1
2017-10-20T03:17:53.138Z,98.71
2017-10-20T03:18:33.673Z,97.85
2017-10-20T03:19:14.221Z,98.14
2017-10-20T03:19:54.752Z,97.85
2017-10-20T03:20:35.288Z,97.66
2017-10-20T03:21:15.823Z,97.47
2017-10-20T03:21:56.357Z,97.38
2017-10-20T03:22:36.897Z,97.38
2017-10-20T03:23:17.413Z,97.28
2017-10-20T03:23:58.030Z,97.85
2017-10-20T03:24:38.558Z,97.66
2017-10-20T03:25:19.089Z,97.47
2017-10-20T03:25:59.631Z,97.28
2017-10-20T03:26:40.170Z,97.66
2017-10-20T03:27:20.706Z,96.7
2017-10-20T03:28:01.248Z,97.18
2017-10-20T03:28:41.792Z,96.7
2017-10-20T03:29:22.353Z,96.51
2017-10-20T03:30:02.903Z,96.61
2017-10-20T03:30:43.423Z,96.51
2017-10-20T03:31:23.958Z,96.8
2017-10-20T03:32:04.496Z,96.8
2017-10-20T03:32:45.030Z,96.61
2017-10-20T03:33:25.568Z,96.7
2017-10-20T03:34:06.106Z,96.89
2017-10-20T03:34:46.655Z,96.61
2017-10-20T03:35:27.185Z,96.99
2017-10-20T03:36:07.714Z,96.61
2017-10-20T03:36:48.252Z,96.32
2017-10-20T03:37:28.849Z,96.22
2017-10-20T03:38:09.387Z,96.61
2017-10-20T03:38:49.938Z,96.22
2017-10-20T03:39:30.553Z,96.22
2017-10-20T03:40:11.086Z,96.03
2017-10-20T03:40:51.602Z,96.32
2017-10-20T03:41:32.157Z,95.94
2017-10-20T03:42:12.681Z,95.94
2017-10-20T03:42:53.228Z,96.42
2017-10-20T03:43:33.786Z,96.03
2017-10-20T03:44:14.321Z,96.13
2017-10-20T03:44:54.853Z,96.13
2017-10-20T03:45:35.401Z,96.22
2017-10-20T03:46:15.935Z,96.22
2017-10-20T03:46:56.474Z,96.22
2017-10-20T03:47:37.020Z,95.46
2017-10-20T03:48:17.559Z,94.98
2017-10-20T03:48:58.120Z,94.98
2017-10-20T03:49:38.671Z,95.36
2017-10-20T03:50:19.220Z,95.46
2017-10-20T03:50:59.745Z,95.46
2017-10-20T03:51:40.279Z,94.6
2017-10-20T03:52:20.832Z,94.98
2017-10-20T03:53:01.370Z,93.93
2017-10-20T03:53:41.902Z,94.31
2017-10-20T03:54:22.437Z,93.74
2017-10-20T03:55:02.976Z,93.74
2017-10-20T03:55:43.513Z,93.93
2017-10-20T03:56:24.054Z,93.64
2017-10-20T03:57:04.598Z,93.88
2017-10-20T03:57:45.132Z,93.3
2017-10-20T03:58:25.667Z,93.26
2017-10-20T03:59:06.203Z,93.11
2017-10-20T03:59:46.745Z,93.21
2017-10-20T04:00:27.283Z,92.73
2017-10-20T04:01:07.824Z,92.25
2017-10-20T04:01:48.359Z,92.73
2017-10-20T04:02:28.902Z,92.54
2017-10-20T04:03:09.443Z,92.06
2017-10-20T04:03:49.987Z,91.86
2017-10-20T04:04:30.520Z,91.86
2017-10-20T04:05:11.181Z,91.77
2017-10-20T04:05:51.723Z,91.67
2017-10-20T04:06:32.264Z,91.77
2017-10-20T04:07:12.804Z,91.86
2017-10-20T04:07:53.341Z,91.1
2017-10-20T04:08:33.884Z,91.19
2017-10-20T04:09:14.421Z,91.39
2017-10-20T04:09:54.951Z,91.49
2017-10-20T04:10:35.483Z,91.49
2017-10-20T04:11:16.660Z,91.29
2017-10-20T04:11:57.194Z,91.1
2017-10-20T04:12:37.744Z,92.06
2017-10-20T04:13:18.283Z,91.67
2017-10-20T04:13:58.826Z,91.82
2017-10-20T04:14:39.367Z,92.3
2017-10-20T04:15:19.952Z,92.3
2017-10-20T04:16:00.662Z,92.4
2017-10-20T04:16:41.235Z,92.97
2017-10-20T04:17:21.778Z,93.64
2017-10-20T04:18:02.326Z,94.6
2017-10-20T04:18:42.863Z,97.28
2017-10-20T04:19:23.404Z,99.99
2017-10-20T04:20:03.937Z,99.99
2017-10-20T04:20:44.474Z,99.99
2017-10-20T04:21:25.539Z,99.99
2017-10-20T04:22:06.674Z,99.99
2017-10-20T04:22:47.364Z,99.99
2017-10-20T04:23:27.906Z,99.99
2017-10-20T04:24:08.564Z,99.99
2017-10-20T04:24:49.097Z,99.99
2017-10-20T04:25:29.705Z,99.99
2017-10-20T04:26:10.278Z,99.99
2017-10-20T04:26:50.815Z,99.99
2017-10-20T04:27:31.348Z,99.99
2017-10-20T04:28:11.884Z,99.99
2017-10-20T04:28:52.421Z,99.99
2017-10-20T04:29:32.964Z,99.99
2017-10-20T04:30:13.504Z,99.99
2017-10-20T04:30:54.040Z,99.99
2017-10-20T04:31:34.581Z,99.99
2017-10-20T04:32:15.119Z,99.99
2017-10-20T04:32:55.661Z,99.99
2017-10-20T04:33:36.198Z,99.99
2017-10-20T04:34:16.733Z,99.99
2017-10-20T04:34:57.278Z,99.99
2017-10-20T04:35:37.818Z,99.99
2017-10-20T04:36:18.358Z,99.99
2017-10-20T04:36:58.887Z,99.99
2017-10-20T04:37:39.428Z,99.99
2017-10-20T04:38:19.988Z,99.99
2017-10-20T04:39:00.527Z,99.99
2017-10-20T04:39:41.067Z,99.99
2017-10-20T04:40:21.604Z,99.99
2017-10-20T04:41:02.139Z,99.99
2017-10-20T04:41:42.728Z,99.99
2017-10-20T04:42:23.270Z,99.99
2017-10-20T04:43:03.809Z,99.99
2017-10-20T04:43:44.351Z,99.99
2017-10-20T04:44:24.885Z,99.99
2017-10-20T04:45:05.418Z,99.99
2017-10-20T04:45:45.951Z,99.99
2017-10-20T04:46:26.491Z,99.99
2017-10-20T04:47:07.034Z,99.99
2017-10-20T04:47:47.605Z,99.99
2017-10-20T04:48:28.155Z,99.99
2017-10-20T04:49:08.704Z,99.99
2017-10-20T04:49:49.245Z,99.99
2017-10-20T04:50:29.793Z,99.99
2017-10-20T04:51:10.339Z,99.99
2017-10-20T04:51:50.891Z,99.99
2017-10-20T04:52:31.433Z,99.99
2017-10-20T04:53:11.973Z,99.99
2017-10-20T04:53:52.521Z,99.99
2017-10-20T04:54:33.061Z,99.99
2017-10-20T04:55:13.600Z,99.99
2017-10-20T04:55:54.203Z,99.99
2017-10-20T04:56:34.749Z,99.99
2017-10-20T04:57:15.407Z,99.99
2017-10-20T04:57:55.954Z,99.99
2017-10-20T04:58:36.550Z,99.99
2017-10-20T04:59:17.087Z,99.99
2017-10-20T04:59:57.632Z,99.99
2017-10-20T05:00:38.170Z,99.99
2017-10-20T05:01:18.707Z,99.99
2017-10-20T05:01:59.283Z,99.99
2017-10-20T05:02:39.827Z,99.99
2017-10-20T05:03:20.353Z,99.99
2017-10-20T05:04:00.893Z,99.99
2017-10-20T05:04:41.430Z,99.99
2017-10-20T05:05:21.968Z,99.99
2017-10-20T05:07:51.451Z,99.99
2017-10-20T05:08:31.980Z,99.99
2017-10-20T05:09:12.520Z,99.99
2017-10-20T05:09:53.041Z,99.99
2017-10-20T05:10:33.576Z,99.99
2017-10-20T05:11:14.108Z,99.99
2017-10-20T05:11:54.732Z,99.99
2017-10-20T05:12:35.271Z,99.99
2017-10-20T05:13:16.121Z,99.99
2017-10-20T05:13:56.655Z,99.99
2017-10-20T05:14:37.209Z,99.99
2017-10-20T05:15:17.738Z,99.99
2017-10-20T05:15:58.334Z,99.99
2017-10-20T05:16:38.858Z,99.99
2017-10-20T05:17:19.390Z,99.99
2017-10-20T05:17:59.928Z,99.99
2017-10-20T05:18:40.463Z,99.99
2017-10-20T05:19:20.997Z,99.99
2017-10-20T05:20:01.768Z,99.99
2017-10-20T05:20:42.742Z,99.99
2017-10-20T05:21:23.290Z,99.99
2017-10-20T05:22:03.827Z,99.99
2017-10-20T05:22:44.352Z,99.99
2017-10-20T05:23:24.888Z,99.99
2017-10-20T05:24:05.402Z,99.99
2017-10-20T05:24:45.941Z,99.99
2017-10-20T05:25:26.477Z,99.99
2017-10-20T05:26:07.012Z,99.99
2017-10-20T05:26:47.547Z,99.99
2017-10-20T05:27:28.073Z,99.99
2017-10-20T05:28:08.609Z,99.99
2017-10-20T05:28:49.148Z,99.99
2017-10-20T05:29:29.678Z,99.99
2017-10-20T05:30:10.243Z,99.99
2017-10-20T05:30:50.773Z,99.99
2017-10-20T05:31:31.310Z,99.99
2017-10-20T05:32:11.843Z,99.99
2017-10-20T05:32:52.396Z,99.99
2017-10-20T05:33:32.921Z,99.99
2017-10-20T05:34:13.451Z,99.99
2017-10-20T05:34:53.985Z,99.99
2017-10-20T05:35:34.521Z,99.99
2017-10-20T05:36:15.055Z,99.99
2017-10-20T05:36:55.591Z,99.99
2017-10-20T05:37:36.170Z,99.99
2017-10-20T05:38:16.693Z,99.99
2017-10-20T05:38:57.224Z,99.99
2017-10-20T05:39:37.753Z,99.99
2017-10-20T05:40:18.288Z,99.99
2017-10-20T05:40:58.819Z,99.99
2017-10-20T05:41:39.352Z,99.99
2017-10-20T05:42:19.889Z,99.99
2017-10-20T05:43:00.418Z,99.99
2017-10-20T05:43:40.948Z,99.99
2017-10-20T05:44:21.484Z,99.99
2017-10-20T05:45:02.039Z,99.99
2017-10-20T05:45:42.572Z,99.99
2017-10-20T05:46:23.106Z,99.99
2017-10-20T05:47:03.643Z,99.99
2017-10-20T05:47:44.179Z,99.99
2017-10-20T05:48:24.709Z,99.99
2017-10-20T05:49:05.246Z,99.99
2017-10-20T05:49:45.788Z,99.99
2017-10-20T05:50:26.327Z,99.99
2017-10-20T05:51:06.868Z,99.99
2017-10-20T05:51:47.426Z,99.99
2017-10-20T05:52:27.934Z,99.99
2017-10-20T05:53:08.478Z,99.99
2017-10-20T05:53:49.011Z,99.99
2017-10-20T05:54:29.542Z,99.99
2017-10-20T05:55:10.078Z,99.99
2017-10-20T05:55:50.611Z,99.99
2017-10-20T05:56:31.148Z,99.99
2017-10-20T05:57:11.673Z,99.99
2017-10-20T05:57:52.206Z,99.99
2017-10-20T05:58:32.746Z,99.99
2017-10-20T05:59:13.280Z,99.99
2017-10-20T05:59:53.814Z,99.99
2017-10-20T06:00:34.352Z,99.99
2017-10-20T06:01:14.890Z,99.99
2017-10-20T06:01:55.425Z,99.99
2017-10-20T06:02:35.955Z,99.99
2017-10-20T06:03:16.490Z,99.99
2017-10-20T06:03:57.028Z,99.99
2017-10-20T06:04:37.563Z,99.99
2017-10-20T06:05:18.096Z,99.99
2017-10-20T06:05:58.633Z,99.99
2017-10-20T06:06:39.169Z,99.99
2017-10-20T06:07:19.703Z,99.99
2017-10-20T06:08:00.239Z,99.99
2017-10-20T06:08:40.774Z,99.99
2017-10-20T06:09:21.302Z,99.99
2017-10-20T06:10:01.829Z,99.99
2017-10-20T06:10:42.363Z,99.99
2017-10-20T06:11:22.899Z,99.99
2017-10-20T06:12:03.428Z,99.99
2017-10-20T06:12:43.957Z,99.99
2017-10-20T06:13:24.498Z,99.99
2017-10-20T06:14:05.030Z,99.99
2017-10-20T06:14:45.567Z,99.99
2017-10-20T06:15:26.103Z,99.99
2017-10-20T06:16:06.646Z,99.99
2017-10-20T06:16:47.183Z,99.99
2017-10-20T06:17:27.711Z,99.99
2017-10-20T06:18:08.248Z,99.99
2017-10-20T06:18:48.775Z,99.99
2017-10-20T06:19:29.344Z,99.99
2017-10-20T06:20:09.881Z,99.99
2017-10-20T06:20:50.487Z,99.99
2017-10-20T06:21:31.019Z,99.99
2017-10-20T06:22:11.553Z,99.99
2017-10-20T06:22:52.096Z,99.99
2017-10-20T06:23:32.628Z,99.99
2017-10-20T06:24:13.192Z,99.99
2017-10-20T06:24:53.723Z,99.99
2017-10-20T06:25:34.260Z,99.99
2017-10-20T06:26:14.811Z,99.99
2017-10-20T06:26:55.349Z,99.99
2017-10-20T06:27:35.885Z,99.99
2017-10-20T06:28:16.419Z,99.99
2017-10-20T06:28:56.953Z,99.99
2017-10-20T06:29:37.483Z,99.99
2017-10-20T06:30:18.025Z,99.99
2017-10-20T06:30:58.560Z,99.99
2017-10-20T06:31:39.094Z,99.99
2017-10-20T06:32:19.634Z,99.99
2017-10-20T06:33:00.163Z,99.99
2017-10-20T06:33:40.698Z,99.99
2017-10-20T06:34:21.235Z,99.99
2017-10-20T06:35:01.771Z,99.99
2017-10-20T06:35:42.307Z,99.99
2017-10-20T06:36:22.844Z,99.99
2017-10-20T06:37:03.377Z,99.99
2017-10-20T06:37:43.914Z,99.99
2017-10-20T06:38:24.446Z,99.99
2017-10-20T06:39:05.004Z,99.99
2017-10-20T06:39:45.548Z,99.99
2017-10-20T06:40:26.072Z,99.99
2017-10-20T06:41:06.611Z,99.99
2017-10-20T06:41:47.149Z,99.99
2017-10-20T06:42:27.682Z,99.99
2017-10-20T06:43:08.223Z,99.99
2017-10-20T06:43:48.762Z,99.99
2017-10-20T06:44:29.292Z,99.99
2017-10-20T06:45:09.830Z,99.99
2017-10-20T06:45:50.366Z,99.99
2017-10-20T06:46:30.901Z,99.99
2017-10-20T06:47:11.433Z,99.99
2017-10-20T06:47:51.964Z,99.99
2017-10-20T06:48:32.520Z,99.99
2017-10-20T06:49:13.046Z,99.99
2017-10-20T06:49:53.584Z,99.99
2017-10-20T06:50:34.126Z,99.99
2017-10-20T06:51:14.660Z,99.99
2017-10-20T06:51:55.190Z,99.99
2017-10-20T06:52:35.733Z,99.99
2017-10-20T06:53:16.264Z,99.99
2017-10-20T06:53:56.802Z,99.99
2017-10-20T06:54:37.346Z,99.99
2017-10-20T06:55:17.879Z,99.99
2017-10-20T06:55:58.395Z,99.99
2017-10-20T06:56:38.935Z,99.99
2017-10-20T06:57:19.468Z,99.99
2017-10-20T06:58:00.007Z,99.99
2017-10-20T06:58:40.575Z,99.99
2017-10-20T06:59:21.085Z,99.99
2017-10-20T07:00:01.623Z,99.99
2017-10-20T07:00:42.153Z,99.99
2017-10-20T07:01:22.689Z,99.99
2017-10-20T07:02:03.225Z,99.99
2017-10-20T07:02:43.753Z,99.99
2017-10-20T07:03:24.289Z,99.99
2017-10-20T07:04:04.823Z,99.99
2017-10-20T07:04:45.375Z,99.99
2017-10-20T07:05:25.906Z,99.99
2017-10-20T07:06:06.435Z,99.99
2017-10-20T07:06:46.975Z,99.99
2017-10-20T07:07:27.514Z,99.99
2017-10-20T07:08:08.047Z,99.99
2017-10-20T07:08:48.583Z,99.99
2017-10-20T07:09:29.119Z,99.99
2017-10-20T07:10:09.650Z,99.99
2017-10-20T07:10:50.180Z,99.99
2017-10-20T07:11:30.716Z,99.99
2017-10-20T07:12:11.252Z,99.99
2017-10-20T07:12:51.789Z,99.99
2017-10-20T07:13:32.323Z,99.99
2017-10-20T07:14:12.928Z,99.99
2017-10-20T07:14:53.449Z,99.99
2017-10-20T07:15:33.984Z,99.99
2017-10-20T07:16:14.508Z,99.99
2017-10-20T07:16:55.046Z,99.99
2017-10-20T07:17:35.575Z,99.99
2017-10-20T07:18:16.115Z,99.99
2017-10-20T07:18:56.653Z,99.99
2017-10-20T07:19:37.193Z,99.99
2017-10-20T07:20:17.732Z,99.99
2017-10-20T07:20:58.433Z,99.99
2017-10-20T07:21:38.961Z,99.99
2017-10-20T07:22:19.499Z,99.99
2017-10-20T07:23:00.035Z,99.99
2017-10-20T07:23:40.575Z,99.99
2017-10-20T07:24:21.112Z,99.99
2017-10-20T07:25:01.646Z,99.99
2017-10-20T07:25:42.178Z,99.99
2017-10-20T07:26:22.714Z,99.99
2017-10-20T07:27:03.249Z,99.99
2017-10-20T07:27:43.795Z,99.99
2017-10-20T07:28:24.326Z,99.99
2017-10-20T07:29:04.861Z,99.99
2017-10-20T07:29:45.390Z,99.99
2017-10-20T07:30:25.927Z,99.99
2017-10-20T07:31:06.479Z,99.99
2017-10-20T07:31:47.013Z,99.99
2017-10-20T07:32:27.531Z,99.99
2017-10-20T07:33:08.065Z,99.99
2017-10-20T07:33:48.603Z,99.99
2017-10-20T07:34:29.142Z,99.99
2017-10-20T07:35:09.688Z,99.99
2017-10-20T07:35:50.222Z,99.99
2017-10-20T07:36:30.761Z,99.99
2017-10-20T07:37:11.299Z,99.99
2017-10-20T07:37:51.842Z,99.99
2017-10-20T07:38:32.377Z,99.99
2017-10-20T07:39:12.915Z,99.99
2017-10-20T07:39:53.446Z,99.99
2017-10-20T07:40:33.987Z,99.99
2017-10-20T07:41:14.530Z,99.99
2017-10-20T07:41:55.065Z,99.99
2017-10-20T07:42:35.597Z,99.99
2017-10-20T07:43:16.132Z,99.99
2017-10-20T07:43:56.668Z,99.99
2017-10-20T07:44:37.204Z,99.99
2017-10-20T07:45:17.741Z,99.99
2017-10-20T07:45:58.278Z,99.99
2017-10-20T07:46:38.819Z,99.99
2017-10-20T07:47:19.359Z,99.99
2017-10-20T07:47:59.886Z,99.99
2017-10-20T07:48:40.425Z,99.99
2017-10-20T07:49:20.971Z,99.99
2017-10-20T07:50:01.541Z,99.99
2017-10-20T07:50:42.052Z,99.99
2017-10-20T07:51:22.652Z,99.99
2017-10-20T07:52:03.186Z,99.99
2017-10-20T07:52:43.721Z,99.99
2017-10-20T07:53:24.258Z,99.99
2017-10-20T07:54:04.792Z,99.99
2017-10-20T07:54:45.329Z,99.99
2017-10-20T07:55:25.870Z,99.99
2017-10-20T07:56:06.441Z,99.99
2017-10-20T07:56:46.976Z,99.99
2017-10-20T07:57:27.510Z,99.99
2017-10-20T07:58:08.044Z,99.99
2017-10-20T07:58:48.578Z,99.99
2017-10-20T07:59:29.114Z,99.99
2017-10-20T08:00:09.656Z,99.99
2017-10-20T08:00:50.195Z,99.99
2017-10-20T08:01:30.729Z,99.99
2017-10-20T08:02:11.289Z,99.99
2017-10-20T08:02:51.805Z,99.99
2017-10-20T08:03:32.342Z,99.99
2017-10-20T08:04:12.882Z,99.99
2017-10-20T08:04:53.415Z,99.99
2017-10-20T08:05:33.954Z,99.99
2017-10-20T08:06:14.491Z,99.99
2017-10-20T08:06:55.029Z,99.99
2017-10-20T08:07:35.559Z,99.99
2017-10-20T08:08:16.089Z,99.99
2017-10-20T08:08:56.636Z,99.99
2017-10-20T08:09:37.176Z,99.99
2017-10-20T08:10:17.713Z,99.99
2017-10-20T08:10:58.243Z,99.99
2017-10-20T08:11:38.781Z,99.99
2017-10-20T08:12:19.319Z,99.99
2017-10-20T08:12:59.850Z,99.99
2017-10-20T08:13:40.389Z,99.99
2017-10-20T08:14:20.908Z,99.99
2017-10-20T08:15:01.448Z,99.99
2017-10-20T08:15:41.984Z,99.99
2017-10-20T08:16:22.510Z,99.99
2017-10-20T08:17:03.045Z,99.99
2017-10-20T08:17:43.581Z,99.99
2017-10-20T08:18:24.121Z,99.99
2017-10-20T08:19:04.654Z,99.99
2017-10-20T08:19:45.184Z,99.99
2017-10-20T08:20:25.771Z,99.99
2017-10-20T08:21:06.313Z,99.99
2017-10-20T08:21:46.956Z,99.99
2017-10-20T08:22:27.497Z,99.99
2017-10-20T08:23:08.029Z,99.99
2017-10-20T08:23:48.567Z,99.99
2017-10-20T08:24:29.103Z,99.99
2017-10-20T08:25:09.638Z,99.99
2017-10-20T08:25:50.174Z,99.99
2017-10-20T08:26:30.709Z,99.99
2017-10-20T08:27:11.249Z,99.99
2017-10-20T08:27:51.780Z,99.99
2017-10-20T08:28:32.322Z,99.99
2017-10-20T08:29:12.857Z,99.99
2017-10-20T08:29:53.386Z,99.99
2017-10-20T08:30:33.924Z,99.99
2017-10-20T08:31:14.466Z,99.99
2017-10-20T08:31:54.999Z,99.99
2017-10-20T08:32:35.538Z,99.99
2017-10-20T08:33:16.079Z,99.99
2017-10-20T08:33:56.609Z,99.99
2017-10-20T08:34:37.147Z,99.99
2017-10-20T08:35:17.688Z,99.99
2017-10-20T08:35:58.221Z,99.99
2017-10-20T08:36:38.758Z,99.99
2017-10-20T08:37:19.294Z,99.99
2017-10-20T08:37:59.844Z,99.99
2017-10-20T08:38:40.385Z,99.99
2017-10-20T08:39:20.916Z,99.99
2017-10-20T08:40:01.457Z,99.99
2017-10-20T08:40:41.994Z,99.99
2017-10-20T08:41:22.532Z,99.99
2017-10-20T08:42:03.075Z,99.99
2017-10-20T08:42:43.615Z,99.99
2017-10-20T08:43:24.155Z,99.99
2017-10-20T08:44:04.690Z,99.99
2017-10-20T08:44:45.230Z,99.99
2017-10-20T08:45:25.770Z,99.99